sensor_id;sensor_type;location;lat;lon;timestamp;temperature;humidity
5011;DHT22;2524;54.364;10.072;2022-10-16T00:01:09;14.00;99.90
5011;DHT22;2524;54.364;10.072;2022-10-16T00:03:36;14.00;99.90
5011;DHT22;2524;54.364;10.072;2022-10-16T00:06:03;14.00;99.90
5011;DHT22;2524;54.364;10.072;2022-10-16T00:08:29;14.00;99.90
5011;DHT22;2524;54.364;10.072;2022-10-16T00:11:09;14.00;99.90
5011;DHT22;2524;54.364;10.072;2022-10-16T00:13:37;13.90;99.90
5011;DHT22;2524;54.364;10.072;2022-10-16T00:16:04;13.90;99.90
5011;DHT22;2524;54.364;10.072;2022-10-16T00:18:30;13.90;99.90
5011;DHT22;2524;54.364;10.072;2022-10-16T00:21:02;13.90;99.90
5011;DHT22;2524;54.364;10.072;2022-10-16T00:23:28;13.90;99.90
5011;DHT22;2524;54.364;10.072;2022-10-16T00:25:55;13.90;99.90
5011;DHT22;2524;54.364;10.072;2022-10-16T00:28:21;13.90;99.90
5011;DHT22;2524;54.364;10.072;2022-10-16T00:30:46;14.00;99.90
5011;DHT22;2524;54.364;10.072;2022-10-16T00:33:12;14.00;99.90
5011;DHT22;2524;54.364;10.072;2022-10-16T00:35:37;13.80;99.90
5011;DHT22;2524;54.364;10.072;2022-10-16T00:38:03;13.90;99.90
5011;DHT22;2524;54.364;10.072;2022-10-16T00:40:29;13.90;99.90
5011;DHT22;2524;54.364;10.072;2022-10-16T00:42:54;13.90;99.90
5011;DHT22;2524;54.364;10.072;2022-10-16T00:45:20;13.80;99.90
5011;DHT22;2524;54.364;10.072;2022-10-16T00:47:47;13.80;99.90
5011;DHT22;2524;54.364;10.072;2022-10-16T00:50:28;13.90;99.90
5011;DHT22;2524;54.364;10.072;2022-10-16T00:52:56;13.70;99.90
5011;DHT22;2524;54.364;10.072;2022-10-16T00:55:22;13.80;99.90
5011;DHT22;2524;54.364;10.072;2022-10-16T00:57:50;13.80;99.90
5011;DHT22;2524;54.364;10.072;2022-10-16T01:00:23;13.80;99.90
5011;DHT22;2524;54.364;10.072;2022-10-16T01:02:57;13.70;99.90
5011;DHT22;2524;54.364;10.072;2022-10-16T01:05:32;13.70;99.90
5011;DHT22;2524;54.364;10.072;2022-10-16T01:08:21;13.60;99.90
5011;DHT22;2524;54.364;10.072;2022-10-16T01:13:54;13.60;99.90
5011;DHT22;2524;54.364;10.072;2022-10-16T01:19:02;13.60;99.90
5011;DHT22;2524;54.364;10.072;2022-10-16T01:21:40;13.60;99.90
5011;DHT22;2524;54.364;10.072;2022-10-16T01:29:56;13.50;99.90
5011;DHT22;2524;54.364;10.072;2022-10-16T01:32:33;13.50;99.90
5011;DHT22;2524;54.364;10.072;2022-10-16T01:35:25;13.60;99.90
5011;DHT22;2524;54.364;10.072;2022-10-16T01:37:53;13.60;99.90
5011;DHT22;2524;54.364;10.072;2022-10-16T01:40:24;13.60;99.90
5011;DHT22;2524;54.364;10.072;2022-10-16T01:43:04;13.60;99.90
5011;DHT22;2524;54.364;10.072;2022-10-16T01:45:31;13.50;99.90
5011;DHT22;2524;54.364;10.072;2022-10-16T01:48:00;13.50;99.90
5011;DHT22;2524;54.364;10.072;2022-10-16T01:50:32;13.50;99.90
5011;DHT22;2524;54.364;10.072;2022-10-16T01:52:59;13.50;99.90
5011;DHT22;2524;54.364;10.072;2022-10-16T01:55:33;13.60;99.90
5011;DHT22;2524;54.364;10.072;2022-10-16T01:58:04;13.50;99.90
5011;DHT22;2524;54.364;10.072;2022-10-16T02:00:30;13.60;99.90
5011;DHT22;2524;54.364;10.072;2022-10-16T02:02:58;13.50;99.90
5011;DHT22;2524;54.364;10.072;2022-10-16T02:05:31;13.50;99.90
5011;DHT22;2524;54.364;10.072;2022-10-16T02:07:59;13.40;99.90
5011;DHT22;2524;54.364;10.072;2022-10-16T02:10:25;13.50;99.90
5011;DHT22;2524;54.364;10.072;2022-10-16T02:15:47;13.40;99.90
5011;DHT22;2524;54.364;10.072;2022-10-16T02:18:13;13.40;99.90
5011;DHT22;2524;54.364;10.072;2022-10-16T02:20:51;13.50;99.90
5011;DHT22;2524;54.364;10.072;2022-10-16T02:23:40;13.40;99.90
5011;DHT22;2524;54.364;10.072;2022-10-16T02:26:13;13.50;99.90
5011;DHT22;2524;54.364;10.072;2022-10-16T02:28:43;13.40;99.90
5011;DHT22;2524;54.364;10.072;2022-10-16T02:31:11;13.40;99.90
5011;DHT22;2524;54.364;10.072;2022-10-16T02:33:40;13.40;99.90
5011;DHT22;2524;54.364;10.072;2022-10-16T02:36:07;13.50;99.90
5011;DHT22;2524;54.364;10.072;2022-10-16T02:38:33;13.40;99.90
5011;DHT22;2524;54.364;10.072;2022-10-16T02:40:59;13.40;99.90
5011;DHT22;2524;54.364;10.072;2022-10-16T02:43:25;13.40;99.90
5011;DHT22;2524;54.364;10.072;2022-10-16T02:45:51;13.40;99.90
5011;DHT22;2524;54.364;10.072;2022-10-16T02:48:16;13.50;99.90
5011;DHT22;2524;54.364;10.072;2022-10-16T02:50:42;13.50;99.90
5011;DHT22;2524;54.364;10.072;2022-10-16T02:53:07;13.40;99.90
5011;DHT22;2524;54.364;10.072;2022-10-16T02:55:33;13.40;99.90
5011;DHT22;2524;54.364;10.072;2022-10-16T02:57:59;13.30;99.90
5011;DHT22;2524;54.364;10.072;2022-10-16T03:00:24;13.30;99.90
5011;DHT22;2524;54.364;10.072;2022-10-16T03:02:50;13.40;99.90
5011;DHT22;2524;54.364;10.072;2022-10-16T03:05:16;13.30;99.90
5011;DHT22;2524;54.364;10.072;2022-10-16T03:07:42;13.30;99.90
5011;DHT22;2524;54.364;10.072;2022-10-16T03:10:08;13.40;99.90
5011;DHT22;2524;54.364;10.072;2022-10-16T03:12:33;13.30;99.90
5011;DHT22;2524;54.364;10.072;2022-10-16T03:14:59;13.40;99.90
5011;DHT22;2524;54.364;10.072;2022-10-16T03:17:25;13.40;99.90
5011;DHT22;2524;54.364;10.072;2022-10-16T03:19:51;13.30;99.90
5011;DHT22;2524;54.364;10.072;2022-10-16T03:22:16;13.30;99.90
5011;DHT22;2524;54.364;10.072;2022-10-16T03:24:42;13.20;99.90
5011;DHT22;2524;54.364;10.072;2022-10-16T03:27:08;13.20;99.90
5011;DHT22;2524;54.364;10.072;2022-10-16T03:29:33;13.30;99.90
5011;DHT22;2524;54.364;10.072;2022-10-16T03:31:59;13.30;99.90
5011;DHT22;2524;54.364;10.072;2022-10-16T03:34:25;13.20;99.90
5011;DHT22;2524;54.364;10.072;2022-10-16T03:36:51;13.20;99.90
5011;DHT22;2524;54.364;10.072;2022-10-16T03:39:16;13.30;99.90
5011;DHT22;2524;54.364;10.072;2022-10-16T03:41:42;13.30;99.90
5011;DHT22;2524;54.364;10.072;2022-10-16T03:44:08;13.30;99.90
5011;DHT22;2524;54.364;10.072;2022-10-16T03:46:33;13.20;99.90
5011;DHT22;2524;54.364;10.072;2022-10-16T03:48:59;13.20;99.90
5011;DHT22;2524;54.364;10.072;2022-10-16T03:51:24;13.10;99.90
5011;DHT22;2524;54.364;10.072;2022-10-16T03:53:50;13.20;99.90
5011;DHT22;2524;54.364;10.072;2022-10-16T03:56:15;13.10;99.90
5011;DHT22;2524;54.364;10.072;2022-10-16T03:58:41;13.00;99.90
5011;DHT22;2524;54.364;10.072;2022-10-16T04:01:07;13.20;99.90
5011;DHT22;2524;54.364;10.072;2022-10-16T04:03:32;13.00;99.90
5011;DHT22;2524;54.364;10.072;2022-10-16T04:05:58;13.00;99.90
5011;DHT22;2524;54.364;10.072;2022-10-16T04:08:24;13.00;99.90
5011;DHT22;2524;54.364;10.072;2022-10-16T04:10:49;13.00;99.90
5011;DHT22;2524;54.364;10.072;2022-10-16T04:13:15;13.00;99.90
5011;DHT22;2524;54.364;10.072;2022-10-16T04:15:40;13.00;99.90
5011;DHT22;2524;54.364;10.072;2022-10-16T04:18:06;13.00;99.90
5011;DHT22;2524;54.364;10.072;2022-10-16T04:20:33;12.90;99.90
5011;DHT22;2524;54.364;10.072;2022-10-16T04:22:58;12.90;99.90
5011;DHT22;2524;54.364;10.072;2022-10-16T04:25:24;13.00;99.90
5011;DHT22;2524;54.364;10.072;2022-10-16T04:27:52;12.90;99.90
5011;DHT22;2524;54.364;10.072;2022-10-16T04:30:17;13.00;99.90
5011;DHT22;2524;54.364;10.072;2022-10-16T04:32:43;13.00;99.90
5011;DHT22;2524;54.364;10.072;2022-10-16T04:35:08;13.00;99.90
5011;DHT22;2524;54.364;10.072;2022-10-16T04:37:34;13.00;99.90
5011;DHT22;2524;54.364;10.072;2022-10-16T04:40:00;12.80;99.90
5011;DHT22;2524;54.364;10.072;2022-10-16T04:42:25;12.80;99.90
5011;DHT22;2524;54.364;10.072;2022-10-16T04:44:51;12.90;99.90
5011;DHT22;2524;54.364;10.072;2022-10-16T04:47:16;12.90;99.90
5011;DHT22;2524;54.364;10.072;2022-10-16T04:49:42;12.80;99.90
5011;DHT22;2524;54.364;10.072;2022-10-16T04:52:07;12.80;99.90
5011;DHT22;2524;54.364;10.072;2022-10-16T04:54:34;12.80;99.90
5011;DHT22;2524;54.364;10.072;2022-10-16T04:57:00;12.90;99.90
5011;DHT22;2524;54.364;10.072;2022-10-16T04:59:26;12.90;99.90
5011;DHT22;2524;54.364;10.072;2022-10-16T05:01:51;12.80;99.90
5011;DHT22;2524;54.364;10.072;2022-10-16T05:04:17;12.80;99.90
5011;DHT22;2524;54.364;10.072;2022-10-16T05:06:42;12.80;99.90
5011;DHT22;2524;54.364;10.072;2022-10-16T05:09:08;12.80;99.90
5011;DHT22;2524;54.364;10.072;2022-10-16T05:11:34;12.80;99.90
5011;DHT22;2524;54.364;10.072;2022-10-16T05:14:00;12.90;99.90
5011;DHT22;2524;54.364;10.072;2022-10-16T05:16:26;12.80;99.90
5011;DHT22;2524;54.364;10.072;2022-10-16T05:18:52;12.80;99.90
5011;DHT22;2524;54.364;10.072;2022-10-16T05:21:18;12.90;99.90
5011;DHT22;2524;54.364;10.072;2022-10-16T05:23:43;12.90;99.90
5011;DHT22;2524;54.364;10.072;2022-10-16T05:26:09;12.80;99.90
5011;DHT22;2524;54.364;10.072;2022-10-16T05:28:35;12.80;99.90
5011;DHT22;2524;54.364;10.072;2022-10-16T05:31:07;12.90;99.90
5011;DHT22;2524;54.364;10.072;2022-10-16T05:33:33;12.80;99.90
5011;DHT22;2524;54.364;10.072;2022-10-16T05:36:07;12.80;99.90
5011;DHT22;2524;54.364;10.072;2022-10-16T05:38:37;12.90;99.90
5011;DHT22;2524;54.364;10.072;2022-10-16T05:41:03;12.80;99.90
5011;DHT22;2524;54.364;10.072;2022-10-16T05:43:30;12.80;99.90
5011;DHT22;2524;54.364;10.072;2022-10-16T05:46:05;13.00;99.90
5011;DHT22;2524;54.364;10.072;2022-10-16T05:48:32;12.90;99.90
5011;DHT22;2524;54.364;10.072;2022-10-16T05:51:05;12.90;99.90
5011;DHT22;2524;54.364;10.072;2022-10-16T05:53:33;13.00;99.90
5011;DHT22;2524;54.364;10.072;2022-10-16T05:56:00;12.90;99.90
5011;DHT22;2524;54.364;10.072;2022-10-16T05:58:30;13.00;99.90
5011;DHT22;2524;54.364;10.072;2022-10-16T06:01:01;12.80;99.90
5011;DHT22;2524;54.364;10.072;2022-10-16T06:03:27;12.90;99.90
5011;DHT22;2524;54.364;10.072;2022-10-16T06:05:53;12.80;99.90
5011;DHT22;2524;54.364;10.072;2022-10-16T06:08:20;12.90;99.90
5011;DHT22;2524;54.364;10.072;2022-10-16T06:10:46;13.00;99.90
5011;DHT22;2524;54.364;10.072;2022-10-16T06:13:13;13.00;99.90
5011;DHT22;2524;54.364;10.072;2022-10-16T06:15:40;12.90;99.90
5011;DHT22;2524;54.364;10.072;2022-10-16T06:18:07;13.00;99.90
5011;DHT22;2524;54.364;10.072;2022-10-16T06:20:33;12.80;99.90
5011;DHT22;2524;54.364;10.072;2022-10-16T06:22:58;12.90;99.90
5011;DHT22;2524;54.364;10.072;2022-10-16T06:25:24;12.90;99.90
5011;DHT22;2524;54.364;10.072;2022-10-16T06:27:49;13.00;99.90
5011;DHT22;2524;54.364;10.072;2022-10-16T06:30:15;12.90;99.90
5011;DHT22;2524;54.364;10.072;2022-10-16T06:32:40;12.90;99.90
5011;DHT22;2524;54.364;10.072;2022-10-16T06:35:06;13.00;99.90
5011;DHT22;2524;54.364;10.072;2022-10-16T06:37:32;12.90;99.90
5011;DHT22;2524;54.364;10.072;2022-10-16T06:39:57;12.90;99.90
5011;DHT22;2524;54.364;10.072;2022-10-16T06:42:23;13.00;99.90
5011;DHT22;2524;54.364;10.072;2022-10-16T06:44:49;13.00;99.90
5011;DHT22;2524;54.364;10.072;2022-10-16T06:47:14;13.00;99.90
5011;DHT22;2524;54.364;10.072;2022-10-16T06:49:40;13.00;99.90
5011;DHT22;2524;54.364;10.072;2022-10-16T06:52:05;13.00;99.90
5011;DHT22;2524;54.364;10.072;2022-10-16T06:54:31;13.10;99.90
5011;DHT22;2524;54.364;10.072;2022-10-16T06:56:56;13.00;99.90
5011;DHT22;2524;54.364;10.072;2022-10-16T06:59:22;13.00;99.90
5011;DHT22;2524;54.364;10.072;2022-10-16T07:01:48;13.00;99.90
5011;DHT22;2524;54.364;10.072;2022-10-16T07:04:14;13.00;99.90
5011;DHT22;2524;54.364;10.072;2022-10-16T07:06:39;13.10;99.90
5011;DHT22;2524;54.364;10.072;2022-10-16T07:09:07;13.10;99.90
5011;DHT22;2524;54.364;10.072;2022-10-16T07:11:34;13.10;99.90
5011;DHT22;2524;54.364;10.072;2022-10-16T07:14:00;13.20;99.90
5011;DHT22;2524;54.364;10.072;2022-10-16T07:16:28;13.30;99.90
5011;DHT22;2524;54.364;10.072;2022-10-16T07:19:00;13.10;99.90
5011;DHT22;2524;54.364;10.072;2022-10-16T07:21:29;13.20;99.90
5011;DHT22;2524;54.364;10.072;2022-10-16T07:23:58;13.20;99.90
5011;DHT22;2524;54.364;10.072;2022-10-16T07:26:25;13.20;99.90
5011;DHT22;2524;54.364;10.072;2022-10-16T07:28:52;13.20;99.90
5011;DHT22;2524;54.364;10.072;2022-10-16T07:31:19;13.30;99.90
5011;DHT22;2524;54.364;10.072;2022-10-16T07:33:46;13.30;99.90
5011;DHT22;2524;54.364;10.072;2022-10-16T07:36:14;13.30;99.90
5011;DHT22;2524;54.364;10.072;2022-10-16T07:38:40;13.20;99.90
5011;DHT22;2524;54.364;10.072;2022-10-16T07:41:10;13.40;99.90
5011;DHT22;2524;54.364;10.072;2022-10-16T07:43:36;13.20;99.90
5011;DHT22;2524;54.364;10.072;2022-10-16T07:46:02;13.40;99.90
5011;DHT22;2524;54.364;10.072;2022-10-16T07:48:30;13.40;99.90
5011;DHT22;2524;54.364;10.072;2022-10-16T07:51:00;13.40;99.90
5011;DHT22;2524;54.364;10.072;2022-10-16T07:53:27;13.40;99.90
5011;DHT22;2524;54.364;10.072;2022-10-16T07:55:57;13.40;99.90
5011;DHT22;2524;54.364;10.072;2022-10-16T07:58:23;13.50;99.90
5011;DHT22;2524;54.364;10.072;2022-10-16T08:00:49;13.40;99.90
5011;DHT22;2524;54.364;10.072;2022-10-16T08:03:15;13.50;99.90
5011;DHT22;2524;54.364;10.072;2022-10-16T08:05:40;13.50;99.90
5011;DHT22;2524;54.364;10.072;2022-10-16T08:08:06;13.70;99.90
5011;DHT22;2524;54.364;10.072;2022-10-16T08:10:31;13.70;99.90
5011;DHT22;2524;54.364;10.072;2022-10-16T08:12:57;13.70;99.90
5011;DHT22;2524;54.364;10.072;2022-10-16T08:15:23;13.80;99.90
5011;DHT22;2524;54.364;10.072;2022-10-16T08:18:03;13.80;99.90
5011;DHT22;2524;54.364;10.072;2022-10-16T08:20:30;13.80;99.90
5011;DHT22;2524;54.364;10.072;2022-10-16T08:22:56;13.90;99.90
5011;DHT22;2524;54.364;10.072;2022-10-16T08:25:23;14.00;99.90
5011;DHT22;2524;54.364;10.072;2022-10-16T08:27:48;14.00;99.90
5011;DHT22;2524;54.364;10.072;2022-10-16T08:30:14;14.10;99.90
5011;DHT22;2524;54.364;10.072;2022-10-16T08:32:40;14.10;99.90
5011;DHT22;2524;54.364;10.072;2022-10-16T08:35:11;14.20;99.90
5011;DHT22;2524;54.364;10.072;2022-10-16T08:37:37;14.20;99.90
5011;DHT22;2524;54.364;10.072;2022-10-16T08:40:05;14.30;99.90
5011;DHT22;2524;54.364;10.072;2022-10-16T08:50:50;14.50;99.90
5011;DHT22;2524;54.364;10.072;2022-10-16T08:53:45;14.60;99.90
5011;DHT22;2524;54.364;10.072;2022-10-16T08:56:11;14.70;99.90
5011;DHT22;2524;54.364;10.072;2022-10-16T08:58:37;14.70;99.90
5011;DHT22;2524;54.364;10.072;2022-10-16T09:01:13;14.70;99.90
5011;DHT22;2524;54.364;10.072;2022-10-16T09:03:58;14.80;99.90
5011;DHT22;2524;54.364;10.072;2022-10-16T09:11:58;15.00;99.90
5011;DHT22;2524;54.364;10.072;2022-10-16T09:20:18;15.30;99.90
5011;DHT22;2524;54.364;10.072;2022-10-16T09:22:44;15.30;99.90
5011;DHT22;2524;54.364;10.072;2022-10-16T09:25:16;15.40;99.90
5011;DHT22;2524;54.364;10.072;2022-10-16T09:27:46;15.40;99.90
5011;DHT22;2524;54.364;10.072;2022-10-16T09:30:17;15.50;99.90
5011;DHT22;2524;54.364;10.072;2022-10-16T09:32:44;15.60;99.90
5011;DHT22;2524;54.364;10.072;2022-10-16T09:35:19;15.70;99.90
5011;DHT22;2524;54.364;10.072;2022-10-16T09:37:48;15.70;99.90
5011;DHT22;2524;54.364;10.072;2022-10-16T09:40:31;15.80;99.90
5011;DHT22;2524;54.364;10.072;2022-10-16T09:45:33;15.80;99.90
5011;DHT22;2524;54.364;10.072;2022-10-16T09:48:03;15.80;99.90
5011;DHT22;2524;54.364;10.072;2022-10-16T09:50:35;15.90;99.90
5011;DHT22;2524;54.364;10.072;2022-10-16T09:53:14;16.00;99.90
5011;DHT22;2524;54.364;10.072;2022-10-16T09:55:50;16.00;99.90
5011;DHT22;2524;54.364;10.072;2022-10-16T09:58:16;15.90;99.90
5011;DHT22;2524;54.364;10.072;2022-10-16T10:00:48;16.00;99.90
5011;DHT22;2524;54.364;10.072;2022-10-16T10:03:33;15.80;99.90
5011;DHT22;2524;54.364;10.072;2022-10-16T10:06:15;15.70;99.90
5011;DHT22;2524;54.364;10.072;2022-10-16T10:08:56;15.60;99.90
5011;DHT22;2524;54.364;10.072;2022-10-16T10:11:52;15.60;99.90
5011;DHT22;2524;54.364;10.072;2022-10-16T10:14:37;15.70;99.90
5011;DHT22;2524;54.364;10.072;2022-10-16T10:17:11;15.80;99.90
5011;DHT22;2524;54.364;10.072;2022-10-16T10:19:52;15.90;99.90
5011;DHT22;2524;54.364;10.072;2022-10-16T10:24:46;15.90;99.90
5011;DHT22;2524;54.364;10.072;2022-10-16T10:27:19;15.90;99.90
5011;DHT22;2524;54.364;10.072;2022-10-16T10:29:58;15.90;99.90
5011;DHT22;2524;54.364;10.072;2022-10-16T10:32:41;15.80;99.90
5011;DHT22;2524;54.364;10.072;2022-10-16T10:35:16;15.80;99.90
5011;DHT22;2524;54.364;10.072;2022-10-16T10:38:11;15.90;99.90
5011;DHT22;2524;54.364;10.072;2022-10-16T10:46:23;15.80;99.90
5011;DHT22;2524;54.364;10.072;2022-10-16T11:00:28;15.90;99.90
5011;DHT22;2524;54.364;10.072;2022-10-16T11:05:43;16.00;99.90
5011;DHT22;2524;54.364;10.072;2022-10-16T11:08:55;16.00;99.90
5011;DHT22;2524;54.364;10.072;2022-10-16T11:11:32;16.10;99.90
5011;DHT22;2524;54.364;10.072;2022-10-16T11:14:04;16.10;99.90
5011;DHT22;2524;54.364;10.072;2022-10-16T11:16:56;16.10;99.90
5011;DHT22;2524;54.364;10.072;2022-10-16T11:19:44;16.10;99.90
5011;DHT22;2524;54.364;10.072;2022-10-16T11:27:40;16.10;99.90
5011;DHT22;2524;54.364;10.072;2022-10-16T11:30:16;16.10;99.90
5011;DHT22;2524;54.364;10.072;2022-10-16T11:32:54;16.10;99.90
5011;DHT22;2524;54.364;10.072;2022-10-16T11:40:48;16.10;99.90
5011;DHT22;2524;54.364;10.072;2022-10-16T11:43:35;16.20;99.90
5011;DHT22;2524;54.364;10.072;2022-10-16T11:46:26;16.20;99.90
5011;DHT22;2524;54.364;10.072;2022-10-16T11:49:03;16.20;99.90
5011;DHT22;2524;54.364;10.072;2022-10-16T11:51:59;16.20;99.90
5011;DHT22;2524;54.364;10.072;2022-10-16T11:57:23;16.20;99.90
5011;DHT22;2524;54.364;10.072;2022-10-16T12:00:04;16.30;99.90
5011;DHT22;2524;54.364;10.072;2022-10-16T12:05:35;16.30;99.90
5011;DHT22;2524;54.364;10.072;2022-10-16T12:08:09;16.30;99.90
5011;DHT22;2524;54.364;10.072;2022-10-16T12:10:37;16.30;99.90
5011;DHT22;2524;54.364;10.072;2022-10-16T12:18:40;16.40;99.90
5011;DHT22;2524;54.364;10.072;2022-10-16T12:21:07;16.50;99.90
5011;DHT22;2524;54.364;10.072;2022-10-16T12:23:45;16.40;99.90
5011;DHT22;2524;54.364;10.072;2022-10-16T12:26:12;16.60;99.90
5011;DHT22;2524;54.364;10.072;2022-10-16T12:28:37;16.40;99.90
5011;DHT22;2524;54.364;10.072;2022-10-16T12:31:09;16.40;99.90
5011;DHT22;2524;54.364;10.072;2022-10-16T12:33:41;16.40;99.90
5011;DHT22;2524;54.364;10.072;2022-10-16T12:36:26;16.30;99.90
5011;DHT22;2524;54.364;10.072;2022-10-16T12:38:56;16.30;99.90
5011;DHT22;2524;54.364;10.072;2022-10-16T12:41:34;16.30;99.90
5011;DHT22;2524;54.364;10.072;2022-10-16T12:44:02;16.30;99.90
5011;DHT22;2524;54.364;10.072;2022-10-16T12:51:42;16.40;99.90
5011;DHT22;2524;54.364;10.072;2022-10-16T12:54:15;16.40;99.90
5011;DHT22;2524;54.364;10.072;2022-10-16T12:59:50;16.20;99.90
5011;DHT22;2524;54.364;10.072;2022-10-16T13:02:39;16.20;99.90
5011;DHT22;2524;54.364;10.072;2022-10-16T13:11:10;16.40;99.90
5011;DHT22;2524;54.364;10.072;2022-10-16T13:14:02;16.50;99.90
5011;DHT22;2524;54.364;10.072;2022-10-16T13:17:12;16.70;99.90
5011;DHT22;2524;54.364;10.072;2022-10-16T13:30:27;16.80;99.90
5011;DHT22;2524;54.364;10.072;2022-10-16T13:33:13;16.80;99.90
5011;DHT22;2524;54.364;10.072;2022-10-16T13:35:53;16.70;99.90
5011;DHT22;2524;54.364;10.072;2022-10-16T13:38:25;16.70;99.90
5011;DHT22;2524;54.364;10.072;2022-10-16T13:41:00;16.70;99.90
5011;DHT22;2524;54.364;10.072;2022-10-16T13:46:00;16.60;99.90
5011;DHT22;2524;54.364;10.072;2022-10-16T13:48:28;16.60;99.90
5011;DHT22;2524;54.364;10.072;2022-10-16T13:51:03;16.50;99.90
5011;DHT22;2524;54.364;10.072;2022-10-16T13:53:34;16.50;99.90
5011;DHT22;2524;54.364;10.072;2022-10-16T13:56:06;16.50;99.90
5011;DHT22;2524;54.364;10.072;2022-10-16T13:58:32;16.50;99.90
5011;DHT22;2524;54.364;10.072;2022-10-16T14:01:15;16.40;99.90
5011;DHT22;2524;54.364;10.072;2022-10-16T14:03:41;16.40;99.90
5011;DHT22;2524;54.364;10.072;2022-10-16T14:06:15;16.40;99.90
5011;DHT22;2524;54.364;10.072;2022-10-16T14:08:50;16.40;99.90
5011;DHT22;2524;54.364;10.072;2022-10-16T14:11:23;16.40;99.90
5011;DHT22;2524;54.364;10.072;2022-10-16T14:13:50;16.40;99.90
5011;DHT22;2524;54.364;10.072;2022-10-16T14:16:26;16.30;99.90
5011;DHT22;2524;54.364;10.072;2022-10-16T14:19:02;16.40;99.90
5011;DHT22;2524;54.364;10.072;2022-10-16T14:21:29;16.40;99.90
5011;DHT22;2524;54.364;10.072;2022-10-16T14:23:55;16.40;99.90
5011;DHT22;2524;54.364;10.072;2022-10-16T14:26:27;16.40;99.90
5011;DHT22;2524;54.364;10.072;2022-10-16T14:29:14;16.40;99.90
5011;DHT22;2524;54.364;10.072;2022-10-16T14:31:40;16.50;99.90
5011;DHT22;2524;54.364;10.072;2022-10-16T14:34:27;16.50;99.90
5011;DHT22;2524;54.364;10.072;2022-10-16T14:36:58;16.50;99.90
5011;DHT22;2524;54.364;10.072;2022-10-16T14:39:25;16.50;99.90
5011;DHT22;2524;54.364;10.072;2022-10-16T14:41:56;16.50;99.90
5011;DHT22;2524;54.364;10.072;2022-10-16T14:44:30;16.50;99.90
5011;DHT22;2524;54.364;10.072;2022-10-16T14:46:56;16.50;99.90
5011;DHT22;2524;54.364;10.072;2022-10-16T14:49:23;16.50;99.90
5011;DHT22;2524;54.364;10.072;2022-10-16T14:51:49;16.50;99.90
5011;DHT22;2524;54.364;10.072;2022-10-16T14:54:17;16.60;99.90
5011;DHT22;2524;54.364;10.072;2022-10-16T14:56:55;16.50;99.90
5011;DHT22;2524;54.364;10.072;2022-10-16T14:59:35;16.40;99.90
5011;DHT22;2524;54.364;10.072;2022-10-16T15:05:22;16.40;99.90
5011;DHT22;2524;54.364;10.072;2022-10-16T15:07:49;16.40;99.90
5011;DHT22;2524;54.364;10.072;2022-10-16T15:10:17;16.40;99.90
5011;DHT22;2524;54.364;10.072;2022-10-16T15:12:43;16.40;99.90
5011;DHT22;2524;54.364;10.072;2022-10-16T15:15:23;16.50;99.90
5011;DHT22;2524;54.364;10.072;2022-10-16T15:17:51;16.40;99.90
5011;DHT22;2524;54.364;10.072;2022-10-16T15:20:25;16.40;99.90
5011;DHT22;2524;54.364;10.072;2022-10-16T15:22:50;16.30;99.90
5011;DHT22;2524;54.364;10.072;2022-10-16T15:25:27;16.30;99.90
5011;DHT22;2524;54.364;10.072;2022-10-16T15:27:53;16.20;99.90
5011;DHT22;2524;54.364;10.072;2022-10-16T15:30:19;16.20;99.90
5011;DHT22;2524;54.364;10.072;2022-10-16T15:32:44;16.20;99.90
5011;DHT22;2524;54.364;10.072;2022-10-16T15:35:10;16.10;99.90
5011;DHT22;2524;54.364;10.072;2022-10-16T15:37:36;16.00;99.90
5011;DHT22;2524;54.364;10.072;2022-10-16T15:40:01;16.00;99.90
5011;DHT22;2524;54.364;10.072;2022-10-16T15:42:27;15.90;99.90
5011;DHT22;2524;54.364;10.072;2022-10-16T15:44:53;15.90;99.90
5011;DHT22;2524;54.364;10.072;2022-10-16T15:47:18;15.80;99.90
5011;DHT22;2524;54.364;10.072;2022-10-16T15:49:44;15.80;99.90
5011;DHT22;2524;54.364;10.072;2022-10-16T15:52:11;15.80;99.90
5011;DHT22;2524;54.364;10.072;2022-10-16T15:54:37;15.70;99.90
5011;DHT22;2524;54.364;10.072;2022-10-16T15:57:02;15.60;99.90
5011;DHT22;2524;54.364;10.072;2022-10-16T15:59:28;15.60;99.90
5011;DHT22;2524;54.364;10.072;2022-10-16T16:01:54;15.60;99.90
5011;DHT22;2524;54.364;10.072;2022-10-16T16:04:19;15.50;99.90
5011;DHT22;2524;54.364;10.072;2022-10-16T16:06:45;15.50;99.90
5011;DHT22;2524;54.364;10.072;2022-10-16T16:09:12;15.30;99.90
5011;DHT22;2524;54.364;10.072;2022-10-16T16:11:38;15.30;99.90
5011;DHT22;2524;54.364;10.072;2022-10-16T16:14:05;15.30;99.90
5011;DHT22;2524;54.364;10.072;2022-10-16T16:16:31;15.30;99.90
5011;DHT22;2524;54.364;10.072;2022-10-16T16:19:02;15.30;99.90
5011;DHT22;2524;54.364;10.072;2022-10-16T16:21:31;15.20;99.90
5011;DHT22;2524;54.364;10.072;2022-10-16T16:23:57;15.20;99.90
5011;DHT22;2524;54.364;10.072;2022-10-16T16:26:30;15.20;99.90
5011;DHT22;2524;54.364;10.072;2022-10-16T16:29:02;15.10;99.90
5011;DHT22;2524;54.364;10.072;2022-10-16T16:31:29;15.10;99.90
5011;DHT22;2524;54.364;10.072;2022-10-16T16:33:57;15.10;99.90
5011;DHT22;2524;54.364;10.072;2022-10-16T16:36:25;15.00;99.90
5011;DHT22;2524;54.364;10.072;2022-10-16T16:38:51;15.00;99.90
5011;DHT22;2524;54.364;10.072;2022-10-16T16:41:22;15.00;99.90
5011;DHT22;2524;54.364;10.072;2022-10-16T16:43:48;14.90;99.90
5011;DHT22;2524;54.364;10.072;2022-10-16T16:46:16;14.90;99.90
5011;DHT22;2524;54.364;10.072;2022-10-16T16:48:44;14.90;99.90
5011;DHT22;2524;54.364;10.072;2022-10-16T16:51:15;14.90;99.90
5011;DHT22;2524;54.364;10.072;2022-10-16T16:53:42;14.90;99.90
5011;DHT22;2524;54.364;10.072;2022-10-16T16:56:08;14.90;99.90
5011;DHT22;2524;54.364;10.072;2022-10-16T16:58:34;14.80;99.90
5011;DHT22;2524;54.364;10.072;2022-10-16T17:01:00;14.80;99.90
5011;DHT22;2524;54.364;10.072;2022-10-16T17:03:32;14.80;99.90
5011;DHT22;2524;54.364;10.072;2022-10-16T17:06:07;14.80;99.90
5011;DHT22;2524;54.364;10.072;2022-10-16T17:08:34;14.80;99.90
5011;DHT22;2524;54.364;10.072;2022-10-16T17:11:00;14.80;99.90
5011;DHT22;2524;54.364;10.072;2022-10-16T17:13:28;14.70;99.90
5011;DHT22;2524;54.364;10.072;2022-10-16T17:15:54;14.70;99.90
5011;DHT22;2524;54.364;10.072;2022-10-16T17:18:21;14.60;99.90
5011;DHT22;2524;54.364;10.072;2022-10-16T17:20:47;14.60;99.90
5011;DHT22;2524;54.364;10.072;2022-10-16T17:23:15;14.60;99.90
5011;DHT22;2524;54.364;10.072;2022-10-16T17:25:42;14.50;99.90
5011;DHT22;2524;54.364;10.072;2022-10-16T17:28:09;14.60;99.90
5011;DHT22;2524;54.364;10.072;2022-10-16T17:30:37;14.50;99.90
5011;DHT22;2524;54.364;10.072;2022-10-16T17:33:04;14.50;99.90
5011;DHT22;2524;54.364;10.072;2022-10-16T17:35:42;14.50;99.90
5011;DHT22;2524;54.364;10.072;2022-10-16T17:38:08;14.50;99.90
5011;DHT22;2524;54.364;10.072;2022-10-16T17:40:34;14.50;99.90
5011;DHT22;2524;54.364;10.072;2022-10-16T17:43:00;14.60;99.90
5011;DHT22;2524;54.364;10.072;2022-10-16T17:45:26;14.50;99.90
5011;DHT22;2524;54.364;10.072;2022-10-16T17:47:52;14.50;99.90
5011;DHT22;2524;54.364;10.072;2022-10-16T17:50:17;14.40;99.90
5011;DHT22;2524;54.364;10.072;2022-10-16T17:52:43;14.50;99.90